Station Historical Data
Daily Summary for November 29, 2017 Units:  Metric    English   Both
« Previous Day
Next Day »
Daily Weekly Monthly Yearly Custom
  High: Low: Average:
Temperature: 18.3 °C 7.3 °C 11.5 °C
Dew Point: 13.7 °C 2.7 °C 9.1 °C
Humidity: 93% 71% 85%
Wind Speed: 3.7km/h 0km/h 0.5km/h
Wind Gust: 3.7km/h - -
Wind- - West
Pressure: 1028 hPa 1023.9 hPa -
Precipitation: 0 mm    
Historical Graphs
 
 
Tabular Data for November 29, 2017
Time Temperature Dew Point Pressure Wind Wind Speed Wind Gust Humidity Rainfall Rate (Hourly) Conditions
00:00 8.1 °C 3.7 °C 1028 hPa Calm     74% 0 mm CLR
00:05 7.9 °C 3.6 °C 1028 hPa Calm     74% 0 mm CLR
00:10 7.7 °C 3.6 °C 1027.7 hPa Calm     75% 0 mm CLR
00:21 7.6 °C 3.3 °C 1028 hPa Calm     74% 0 mm CLR
00:26 7.8 °C 3.2 °C 1027.7 hPa Calm     73% 0 mm CLR
00:31 7.8 °C 3.3 °C 1028 hPa Calm     73% 0 mm CLR
00:36 8 °C 3.3 °C 1028 hPa Calm     72% 0 mm CLR
00:41 8.1 °C 3.7 °C 1028 hPa Calm     74% 0 mm CLR
00:46 8.1 °C 3.3 °C 1027.7 hPa Calm     72% 0 mm CLR
00:51 8.1 °C 3.6 °C 1027.7 hPa Calm     73% 0 mm CLR
00:56 8 °C 3.3 °C 1027.7 hPa Calm     72% 0 mm CLR
01:01 7.9 °C 3.4 °C 1027.7 hPa Calm     73% 0 mm CLR
01:06 7.8 °C 3.3 °C 1027.7 hPa Calm     73% 0 mm CLR
01:11 7.7 °C 3.2 °C 1027.7 hPa Calm     73% 0 mm CLR
01:16 7.7 °C 2.9 °C 1027.7 hPa Calm     72% 0 mm CLR
01:22 7.7 °C 2.9 °C 1027.7 hPa Calm     72% 0 mm CLR
01:27 7.7 °C 2.9 °C 1027.7 hPa Calm     72% 0 mm CLR
01:32 7.7 °C 2.7 °C 1027.7 hPa Calm     71% 0 mm CLR
01:37 7.6 °C 2.9 °C 1027.7 hPa Calm     72% 0 mm CLR
01:42 7.6 °C 2.8 °C 1028 hPa Calm     72% 0 mm CLR
01:47 7.5 °C 2.9 °C 1028 hPa Calm     73% 0 mm CLR
01:52 7.4 °C 2.9 °C 1027.7 hPa Calm     73% 0 mm FEW
01:57 7.3 °C 2.8 °C 1028 hPa Calm     73% 0 mm FEW
02:02 7.3 °C 2.8 °C 1028 hPa Calm     73% 0 mm FEW
02:12 7.3 °C 2.8 °C 1027.7 hPa Calm     73% 0 mm FEW
02:17 7.3 °C 2.8 °C 1027.7 hPa Calm     73% 0 mm FEW
02:28 7.5 °C 3.2 °C 1027.7 hPa Calm     74% 0 mm SCT
02:33 7.6 °C 3.6 °C 1027.7 hPa Calm     76% 0 mm SCT
02:43 7.6 °C 3.4 °C 1028 hPa Calm     75% 0 mm SCT
02:48 7.7 °C 3.3 °C 1027.7 hPa Calm     74% 0 mm SCT
02:53 7.7 °C 3.8 °C 1027.7 hPa Calm     76% 0 mm OVC
03:08 8.1 °C 3.8 °C 1027.7 hPa Calm     74% 0 mm OVC
03:13 8.3 °C 4.1 °C 1028 hPa Calm     75% 0 mm OVC
03:18 8.4 °C 4.2 °C 1027.7 hPa Calm     75% 0 mm OVC
03:23 8.5 °C 4.1 °C 1027.7 hPa Calm     74% 0 mm BKN
03:29 8.6 °C 4.6 °C 1027.7 hPa Calm     76% 0 mm BKN
03:34 8.8 °C 5.2 °C 1027.7 hPa Calm     78% 0 mm BKN
03:44 9.1 °C 5.9 °C 1027.7 hPa Calm     81% 0 mm OVC
03:49 9.1 °C 6.3 °C 1027.7 hPa Calm     83% 0 mm OVC
03:59 9.1 °C 6.5 °C 1027.7 hPa Calm     84% 0 mm OVC
04:04 9.1 °C 6.5 °C 1027.7 hPa Calm     84% 0 mm OVC
04:09 9.1 °C 6.5 °C 1027.3 hPa Calm     84% 0 mm OVC
04:14 9 °C 6.4 °C 1027.3 hPa Calm     84% 0 mm OVC
04:25 8.9 °C 6.6 °C 1027.3 hPa Calm     85% 0 mm OVC
04:35 8.9 °C 6.7 °C 1027.3 hPa Calm     86% 0 mm OVC
04:40 8.8 °C 6.8 °C 1027.3 hPa Calm     87% 0 mm OVC
04:45 8.8 °C 6.9 °C 1027.3 hPa Calm     88% 0 mm OVC
04:55 8.7 °C 7 °C 1027.3 hPa Calm     89% 0 mm OVC
05:00 8.7 °C 7 °C 1027.3 hPa Calm     89% 0 mm OVC
05:05 8.7 °C 7 °C 1027.3 hPa Calm     89% 0 mm OVC
05:10 8.7 °C 7.2 °C 1027.3 hPa Calm     90% 0 mm OVC
05:15 8.8 °C 7.2 °C 1027.3 hPa Calm     90% 0 mm OVC
05:20 8.8 °C 7.2 °C 1027.3 hPa Calm     90% 0 mm OVC
05:25 8.8 °C 7.2 °C 1027.3 hPa Calm     90% 0 mm OVC
05:30 8.8 °C 7.2 °C 1027.3 hPa Calm     90% 0 mm OVC
05:36 8.8 °C 7.4 °C 1027.3 hPa Calm     91% 0 mm OVC
05:41 8.8 °C 7.4 °C 1027.3 hPa Calm     91% 0 mm OVC
05:46 8.8 °C 7.4 °C 1027.3 hPa Calm     91% 0 mm OVC
05:51 8.8 °C 7.4 °C 1027.3 hPa Calm     91% 0 mm OVC
05:54 8.9 °C 7.5 °C 1027.3 hPa Calm     91% 0 mm OVC
05:59 8.9 °C 7.5 °C 1027.7 hPa Calm     91% 0 mm OVC
06:04 8.9 °C 7.5 °C 1027.7 hPa Calm     91% 0 mm
06:10 8.9 °C 7.6 °C 1027.7 hPa Calm     91% 0 mm
06:15 8.9 °C 7.6 °C 1027.3 hPa Calm     91% 0 mm
06:20 8.9 °C 7.6 °C 1027.3 hPa Calm     91% 0 mm CLR
06:25 8.9 °C 7.6 °C 1027.3 hPa Calm     91% 0 mm CLR
06:30 9 °C 7.6 °C 1027.7 hPa Calm     91% 0 mm
06:34 9 °C 7.6 °C 1027.7 hPa Calm     91% 0 mm
06:39 9 °C 7.8 °C 1027.7 hPa Calm     92% 0 mm
06:49 9.1 °C 7.8 °C 1027.7 hPa Calm     92% 0 mm
06:54 9.1 °C 7.9 °C 1027.7 hPa Calm     92% 0 mm
06:59 9.1 °C 7.9 °C 1027.7 hPa Calm     92% 0 mm
07:04 9.1 °C 7.9 °C 1027.7 hPa Calm     92% 0 mm
07:09 9.2 °C 7.9 °C 1027.7 hPa Calm     92% 0 mm
07:14 9.2 °C 7.9 °C 1027.7 hPa Calm     92% 0 mm -DZ
07:19 9.2 °C 8 °C 1027.7 hPa Calm     92% 0 mm -DZ
07:25 9.3 °C 8.1 °C 1027.7 hPa Calm     92% 0 mm -DZ
07:30 9.3 °C 8.1 °C 1027.7 hPa Calm     92% 0 mm -DZ
07:40 9.4 °C 8.2 °C 1027.7 hPa Calm     92% 0 mm -DZ
07:45 9.4 °C 8.2 °C 1027.7 hPa Calm     92% 0 mm -DZ
07:50 9.5 °C 8.3 °C 1027.7 hPa Calm     92% 0 mm -DZ
07:55 9.6 °C 8.3 °C 1027.7 hPa Calm     92% 0 mm -DZ
08:00 9.6 °C 8.4 °C 1027.7 hPa Calm     92% 0 mm -DZ
08:05 9.7 °C 8.4 °C 1027.7 hPa Calm     92% 0 mm
08:10 9.7 °C 8.5 °C 1028 hPa Calm     92% 0 mm
08:15 9.7 °C 8.7 °C 1028 hPa Calm     93% 0 mm
08:20 9.8 °C 8.8 °C 1028 hPa Calm     93% 0 mm
08:25 9.8 °C 8.8 °C 1028 hPa Calm     93% 0 mm
08:31 9.9 °C 8.8 °C 1027.7 hPa Calm     93% 0 mm
08:36 9.9 °C 8.8 °C 1027.7 hPa Calm     93% 0 mm
08:41 10 °C 8.9 °C 1027.7 hPa Calm     93% 0 mm
08:46 10.1 °C 9.1 °C 1027.7 hPa Calm     93% 0 mm
08:51 10.2 °C 9.2 °C 1027.7 hPa Calm     93% 0 mm
08:56 10.3 °C 9.2 °C 1027.7 hPa Calm     93% 0 mm
09:01 10.3 °C 9.3 °C 1027.7 hPa Calm     93% 0 mm
09:06 10.4 °C 9.3 °C 1027.7 hPa Calm     93% 0 mm
09:11 10.5 °C 9.4 °C 1027.7 hPa Calm     93% 0 mm
09:16 10.6 °C 9.5 °C 1028 hPa WNW 1.9 km/h   93% 0 mm
09:21 10.7 °C 9.6 °C 1028 hPa WNW 1.9 km/h   93% 0 mm
09:26 10.8 °C 9.7 °C 1028 hPa Calm     93% 0 mm
09:57 11.6 °C 10.4 °C 1028 hPa Calm     93% 0 mm
10:02 11.7 °C 10.6 °C 1028 hPa WNW 1.9 km/h   93% 0 mm
10:12 11.9 °C 10.8 °C 1028 hPa Calm     93% 0 mm
10:17 12 °C 10.9 °C 1027.7 hPa WNW 1.9 km/h   93% 0 mm
10:22 12.1 °C 10.9 °C 1027.7 hPa WNW 1.9 km/h   93% 0 mm
10:27 12.1 °C 10.9 °C 1027.7 hPa WNW 1.9 km/h   93% 0 mm
10:32 12.2 °C 11.1 °C 1027.7 hPa Calm     93% 0 mm
10:37 12.2 °C 11.1 °C 1027.7 hPa Calm     93% 0 mm
10:48 12.2 °C 10.9 °C 1027.7 hPa WNW 1.9 km/h   92% 0 mm
10:53 12.1 °C 10.8 °C 1027.7 hPa WNW 1.9 km/h 1.9 km/h 92% 0 mm
10:58 12.1 °C 10.8 °C 1027.7 hPa WNW 1.9 km/h   92% 0 mm
11:03 12.2 °C 10.9 °C 1027.7 hPa WNW 1.9 km/h   92% 0 mm
11:13 12.4 °C 11.3 °C 1027.7 hPa West 1.9 km/h   93% 0 mm
11:18 12.5 °C 11.4 °C 1028 hPa WSW 1.9 km/h   93% 0 mm
11:28 12.7 °C 11.6 °C 1027.7 hPa West 1.9 km/h   93% 0 mm OVC
11:33 12.7 °C 11.4 °C 1027.7 hPa West 1.9 km/h   92% 0 mm OVC
11:38 12.7 °C 11.4 °C 1027.7 hPa West 1.9 km/h   92% 0 mm OVC
11:43 12.8 °C 11.5 °C 1027.7 hPa West 1.9 km/h   92% 0 mm OVC
11:48 12.8 °C 11.5 °C 1027.3 hPa West 1.9 km/h   92% 0 mm OVC
11:54 12.9 °C 11.7 °C 1027.3 hPa Calm     92% 0 mm OVC
12:04 13.1 °C 11.7 °C 1027.3 hPa Calm     91% 0 mm OVC
12:14 13.3 °C 11.8 °C 1027 hPa Calm     91% 0 mm OVC
12:19 13.5 °C 12.1 °C 1027 hPa Calm     91% 0 mm OVC
12:29 13.7 °C 12.1 °C 1027 hPa Calm     90% 0 mm OVC
12:34 13.8 °C 12.1 °C 1027 hPa Calm     89% 0 mm OVC
12:55 14.2 °C 12.3 °C 1026.3 hPa Calm     88% 0 mm OVC
13:05 14.6 °C 12.4 °C 1026.3 hPa NW 1.9 km/h   87% 0 mm OVC
13:15 15.1 °C 12.8 °C 1026 hPa WNW 1.9 km/h   86% 0 mm OVC
13:35 15.4 °C 12.9 °C 1025.6 hPa WNW 1.9 km/h   85% 0 mm OVC
13:40 15.7 °C 13.2 °C 1025.6 hPa WNW 1.9 km/h   85% 0 mm OVC
13:45 16.1 °C 13.2 °C 1025.6 hPa WNW 1.9 km/h 1.9 km/h 83% 0 mm OVC
13:50 16.1 °C 13.1 °C 1025.3 hPa WNW 3.7 km/h 3.7 km/h 82% 0 mm OVC
13:55 16.2 °C 13.1 °C 1025.3 hPa WNW 3.7 km/h 3.7 km/h 82% 0 mm BKN
14:01 16.3 °C 13.2 °C 1025.3 hPa WNW 3.7 km/h   82% 0 mm BKN
14:06 16.4 °C 13.3 °C 1025.3 hPa WNW 3.7 km/h   82% 0 mm BKN
14:16 16.7 °C 13.3 °C 1024.9 hPa WNW 1.9 km/h   80% 0 mm BKN
14:21 16.9 °C 13.4 °C 1024.9 hPa WNW 1.9 km/h 1.9 km/h 80% 0 mm SCT
14:31 17.1 °C 13.4 °C 1024.9 hPa WNW 1.9 km/h   79% 0 mm SCT
14:37 17.3 °C 13.6 °C 1024.9 hPa WNW 1.9 km/h   79% 0 mm SCT
14:42 17.6 °C 13.7 °C 1024.9 hPa WNW 1.9 km/h   78% 0 mm SCT
14:52 17.8 °C 13.6 °C 1024.9 hPa WNW 1.9 km/h   76% 0 mm SCT
14:57 17.9 °C 13.7 °C 1024.6 hPa NE 3.7 km/h   76% 0 mm SCT
15:02 18.2 °C 13.7 °C 1024.6 hPa ESE 3.7 km/h   75% 0 mm SCT
15:07 18.3 °C 13.6 °C 1024.6 hPa ESE 1.9 km/h 1.9 km/h 74% 0 mm SCT
15:12 18.2 °C 13.3 °C 1024.6 hPa WNW 1.9 km/h   73% 0 mm FEW
15:22 18.2 °C 13.2 °C 1024.6 hPa WNW 1.9 km/h   73% 0 mm FEW
15:27 18.1 °C 12.9 °C 1024.6 hPa WNW 1.9 km/h 1.9 km/h 72% 0 mm FEW
15:32 18 °C 13.1 °C 1024.3 hPa West 1.9 km/h   73% 0 mm FEW
15:37 18 °C 13.3 °C 1024.3 hPa West 1.9 km/h   74% 0 mm FEW
15:42 18.1 °C 12.9 °C 1024.6 hPa Calm     72% 0 mm FEW
15:53 17.9 °C 12.8 °C 1024.3 hPa WNW 1.9 km/h   72% 0 mm FEW
15:58 17.9 °C 13 °C 1024.3 hPa WNW 1.9 km/h   73% 0 mm FEW
16:03 17.8 °C 13.1 °C 1024.3 hPa WNW 1.9 km/h   74% 0 mm FEW
16:08 17.6 °C 12.9 °C 1024.3 hPa Calm     74% 0 mm FEW
16:13 17.6 °C 12.9 °C 1024.3 hPa Calm     74% 0 mm FEW
16:23 17.4 °C 12.9 °C 1024.3 hPa Calm     75% 0 mm FEW
16:33 17.2 °C 12.7 °C 1024.3 hPa Calm     75% 0 mm FEW
16:38 17.1 °C 12.7 °C 1024.3 hPa Calm     75% 0 mm FEW
16:48 16.8 °C 12.6 °C 1024.3 hPa Calm     76% 0 mm FEW
16:59 16.5 °C 12.7 °C 1024.3 hPa Calm     78% 0 mm FEW
17:04 16.4 °C 12.6 °C 1023.9 hPa Calm     78% 0 mm FEW
17:09 16.3 °C 12.4 °C 1023.9 hPa Calm     78% 0 mm FEW
17:24 15.7 °C 12.1 °C 1024.3 hPa Calm     79% 0 mm FEW
17:29 15.5 °C 12.1 °C 1024.3 hPa Calm     80% 0 mm FEW
17:34 15.3 °C 12.1 °C 1024.3 hPa Calm     81% 0 mm FEW
17:39 15.1 °C 11.9 °C 1024.3 hPa Calm     81% 0 mm FEW
17:44 14.9 °C 11.7 °C 1024.3 hPa Calm     81% 0 mm FEW
17:49 14.8 °C 11.7 °C 1024.3 hPa Calm     82% 0 mm FEW
17:55 14.6 °C 11.8 °C 1024.3 hPa Calm     83% 0 mm FEW
18:00 14.4 °C 11.6 °C 1024.3 hPa Calm     83% 0 mm FEW
18:05 14.3 °C 11.8 °C 1024.3 hPa Calm     85% 0 mm FEW
18:10 14.2 °C 11.5 °C 1024.3 hPa Calm     84% 0 mm FEW
18:20 14 °C 11.7 °C 1024.6 hPa Calm     86% 0 mm FEW
18:25 13.9 °C 11.6 °C 1024.6 hPa Calm     86% 0 mm FEW
18:30 13.7 °C 11.4 °C 1024.6 hPa Calm     86% 0 mm FEW
18:35 13.6 °C 11.3 °C 1024.6 hPa Calm     86% 0 mm FEW
18:40 13.4 °C 11.3 °C 1024.6 hPa Calm     87% 0 mm FEW
18:49 13.2 °C 11.1 °C 1024.9 hPa Calm     87% 0 mm FEW
18:59 12.9 °C 11 °C 1024.9 hPa Calm     88% 0 mm FEW
19:04 12.8 °C 10.9 °C 1024.9 hPa Calm     88% 0 mm FEW
19:09 12.7 °C 10.8 °C 1024.9 hPa Calm     88% 0 mm FEW
19:24 12.5 °C 10.7 °C 1024.9 hPa Calm     89% 0 mm FEW
19:29 12.4 °C 10.8 °C 1024.9 hPa Calm     90% 0 mm FEW
19:35 12.3 °C 10.7 °C 1024.9 hPa Calm     90% 0 mm FEW
19:45 12.2 °C 10.6 °C 1024.9 hPa Calm     90% 0 mm FEW
19:50 12.2 °C 10.6 °C 1024.9 hPa Calm     90% 0 mm FEW
20:00 12 °C 10.4 °C 1024.9 hPa Calm     90% 0 mm FEW
20:05 11.9 °C 10.3 °C 1024.9 hPa Calm     90% 0 mm FEW
20:10 11.8 °C 10.2 °C 1024.9 hPa Calm     90% 0 mm FEW
20:15 11.8 °C 10.3 °C 1024.9 hPa Calm     91% 0 mm FEW
20:20 11.8 °C 10.3 °C 1025.3 hPa Calm     91% 0 mm FEW
20:25 11.8 °C 10.4 °C 1024.9 hPa Calm     91% 0 mm FEW
20:30 11.8 °C 10.4 °C 1024.9 hPa Calm     91% 0 mm FEW
20:40 11.7 °C 10.2 °C 1024.9 hPa Calm     91% 0 mm FEW
20:46 12.1 °C 10.9 °C 1024.9 hPa Calm     93% 0 mm FEW
20:56 12.2 °C 10.9 °C 1024.9 hPa Calm     92% 0 mm FEW
21:01 12 °C 10.6 °C 1024.9 hPa Calm     91% 0 mm SCT
21:06 11.8 °C 10.4 °C 1024.9 hPa Calm     91% 0 mm SCT
21:11 11.6 °C 10.2 °C 1024.6 hPa Calm     91% 0 mm SCT
21:16 11.4 °C 10 °C 1024.6 hPa Calm     91% 0 mm SCT
21:21 11.3 °C 9.9 °C 1024.6 hPa Calm     91% 0 mm SCT
21:26 11.2 °C 9.8 °C 1024.6 hPa Calm     91% 0 mm SCT
21:36 11.3 °C 10 °C 1024.6 hPa Calm     92% 0 mm SCT
21:41 11.3 °C 10 °C 1024.6 hPa Calm     92% 0 mm SCT
21:46 11.2 °C 9.9 °C 1024.6 hPa Calm     92% 0 mm SCT
21:51 11.1 °C 9.8 °C 1024.6 hPa Calm     92% 0 mm FEW
21:57 11 °C 9.7 °C 1024.6 hPa Calm     92% 0 mm FEW
22:02 10.9 °C 9.5 °C 1024.6 hPa Calm     91% 0 mm BKN
22:07 10.9 °C 9.7 °C 1024.6 hPa Calm     92% 0 mm BKN
22:12 11 °C 9.7 °C 1024.6 hPa Calm     92% 0 mm BKN
22:17 11 °C 9.7 °C 1024.6 hPa Calm     92% 0 mm BKN
22:27 10.9 °C 9.7 °C 1024.6 hPa Calm     92% 0 mm BKN
22:32 10.8 °C 9.6 °C 1024.6 hPa Calm     92% 0 mm BKN
22:37 10.8 °C 9.6 °C 1024.6 hPa Calm     92% 0 mm BKN
22:42 10.7 °C 9.5 °C 1024.6 hPa Calm     92% 0 mm BKN
22:47 10.6 °C 9.4 °C 1024.6 hPa Calm     92% 0 mm BKN
22:57 10.4 °C 9.2 °C 1024.6 hPa Calm     92% 0 mm OVC
23:08 10.3 °C 9.1 °C 1024.3 hPa Calm     92% 0 mm OVC
23:18 10.3 °C 9.1 °C 1024.3 hPa Calm     92% 0 mm OVC
23:23 10.3 °C 9.1 °C 1024.3 hPa Calm     92% 0 mm
23:33 10.2 °C 9 °C 1024.3 hPa Calm     92% 0 mm
Piedmont Bend
Compliments of Weather Underground - 4 mb